sensor_id;sensor_type;location;lat;lon;timestamp;temperature;humidity
47174;DHT22;36730;49.036;9.094;2023-09-30T00:02:20;25.80;71.80
47174;DHT22;36730;49.036;9.094;2023-09-30T00:04:45;25.80;71.90
47174;DHT22;36730;49.036;9.094;2023-09-30T00:07:11;25.70;71.90
47174;DHT22;36730;49.036;9.094;2023-09-30T00:09:36;25.70;71.90
47174;DHT22;36730;49.036;9.094;2023-09-30T00:12:02;25.70;71.80
47174;DHT22;36730;49.036;9.094;2023-09-30T00:14:28;25.80;71.90
47174;DHT22;36730;49.036;9.094;2023-09-30T00:16:54;25.70;71.80
47174;DHT22;36730;49.036;9.094;2023-09-30T00:19:20;25.70;71.70
47174;DHT22;36730;49.036;9.094;2023-09-30T00:21:48;25.70;71.80
47174;DHT22;36730;49.036;9.094;2023-09-30T00:24:13;25.70;71.80
47174;DHT22;36730;49.036;9.094;2023-09-30T00:26:39;25.70;71.80
47174;DHT22;36730;49.036;9.094;2023-09-30T00:29:04;25.70;71.70
47174;DHT22;36730;49.036;9.094;2023-09-30T00:31:30;25.70;71.60
47174;DHT22;36730;49.036;9.094;2023-09-30T00:33:56;25.70;71.80
47174;DHT22;36730;49.036;9.094;2023-09-30T00:36:21;25.70;71.60
47174;DHT22;36730;49.036;9.094;2023-09-30T00:38:47;25.70;71.70
47174;DHT22;36730;49.036;9.094;2023-09-30T00:41:12;25.70;71.70
47174;DHT22;36730;49.036;9.094;2023-09-30T00:43:38;25.70;71.70
47174;DHT22;36730;49.036;9.094;2023-09-30T00:46:11;25.70;71.80
47174;DHT22;36730;49.036;9.094;2023-09-30T00:48:41;25.60;71.80
47174;DHT22;36730;49.036;9.094;2023-09-30T00:51:07;25.60;71.70
47174;DHT22;36730;49.036;9.094;2023-09-30T00:53:32;25.70;71.80
47174;DHT22;36730;49.036;9.094;2023-09-30T00:55:58;25.60;71.60
47174;DHT22;36730;49.036;9.094;2023-09-30T00:58:25;25.60;71.70
47174;DHT22;36730;49.036;9.094;2023-09-30T01:00:53;25.60;71.70
47174;DHT22;36730;49.036;9.094;2023-09-30T01:03:19;25.60;71.50
47174;DHT22;36730;49.036;9.094;2023-09-30T01:05:45;25.60;71.70
47174;DHT22;36730;49.036;9.094;2023-09-30T01:08:10;25.60;71.70
47174;DHT22;36730;49.036;9.094;2023-09-30T01:10:36;25.50;72.30
47174;DHT22;36730;49.036;9.094;2023-09-30T01:13:01;25.60;71.70
47174;DHT22;36730;49.036;9.094;2023-09-30T01:15:28;25.50;71.60
47174;DHT22;36730;49.036;9.094;2023-09-30T01:17:54;25.50;71.70
47174;DHT22;36730;49.036;9.094;2023-09-30T01:20:19;25.50;71.70
47174;DHT22;36730;49.036;9.094;2023-09-30T01:22:47;25.50;71.70
47174;DHT22;36730;49.036;9.094;2023-09-30T01:25:13;25.50;71.60
47174;DHT22;36730;49.036;9.094;2023-09-30T01:27:38;25.50;71.60
47174;DHT22;36730;49.036;9.094;2023-09-30T01:30:04;25.50;71.60
47174;DHT22;36730;49.036;9.094;2023-09-30T01:32:29;25.50;71.70
47174;DHT22;36730;49.036;9.094;2023-09-30T01:34:55;25.50;71.70
47174;DHT22;36730;49.036;9.094;2023-09-30T01:37:20;25.50;71.60
47174;DHT22;36730;49.036;9.094;2023-09-30T01:39:46;25.50;71.50
47174;DHT22;36730;49.036;9.094;2023-09-30T01:42:11;25.50;71.50
47174;DHT22;36730;49.036;9.094;2023-09-30T01:44:37;25.40;71.60
47174;DHT22;36730;49.036;9.094;2023-09-30T01:47:02;25.40;71.50
47174;DHT22;36730;49.036;9.094;2023-09-30T01:49:28;25.40;71.70
47174;DHT22;36730;49.036;9.094;2023-09-30T01:51:53;25.40;71.40
47174;DHT22;36730;49.036;9.094;2023-09-30T01:54:19;25.40;71.40
47174;DHT22;36730;49.036;9.094;2023-09-30T01:56:44;25.40;71.60
47174;DHT22;36730;49.036;9.094;2023-09-30T01:59:10;25.40;71.60
47174;DHT22;36730;49.036;9.094;2023-09-30T02:01:35;25.40;71.40
47174;DHT22;36730;49.036;9.094;2023-09-30T02:04:01;25.40;71.40
47174;DHT22;36730;49.036;9.094;2023-09-30T02:06:26;25.40;71.30
47174;DHT22;36730;49.036;9.094;2023-09-30T02:08:52;25.40;71.40
47174;DHT22;36730;49.036;9.094;2023-09-30T02:11:17;25.40;71.30
47174;DHT22;36730;49.036;9.094;2023-09-30T02:13:42;25.40;71.20
47174;DHT22;36730;49.036;9.094;2023-09-30T02:16:13;25.30;71.20
47174;DHT22;36730;49.036;9.094;2023-09-30T02:18:39;25.40;71.20
47174;DHT22;36730;49.036;9.094;2023-09-30T02:21:05;25.40;71.00
47174;DHT22;36730;49.036;9.094;2023-09-30T02:23:31;25.30;71.00
47174;DHT22;36730;49.036;9.094;2023-09-30T02:25:57;25.30;71.00
47174;DHT22;36730;49.036;9.094;2023-09-30T02:28:23;25.30;71.00
47174;DHT22;36730;49.036;9.094;2023-09-30T02:30:48;25.30;71.10
47174;DHT22;36730;49.036;9.094;2023-09-30T02:33:14;25.30;71.10
47174;DHT22;36730;49.036;9.094;2023-09-30T02:35:43;25.30;70.90
47174;DHT22;36730;49.036;9.094;2023-09-30T02:38:08;25.30;71.00
47174;DHT22;36730;49.036;9.094;2023-09-30T02:40:34;25.30;70.60
47174;DHT22;36730;49.036;9.094;2023-09-30T02:43:00;25.30;70.90
47174;DHT22;36730;49.036;9.094;2023-09-30T02:45:25;25.20;70.50
47174;DHT22;36730;49.036;9.094;2023-09-30T02:47:50;25.20;70.70
47174;DHT22;36730;49.036;9.094;2023-09-30T02:50:16;25.20;70.40
47174;DHT22;36730;49.036;9.094;2023-09-30T02:52:41;25.20;70.20
47174;DHT22;36730;49.036;9.094;2023-09-30T02:55:10;25.20;70.70
47174;DHT22;36730;49.036;9.094;2023-09-30T02:57:36;25.20;69.80
47174;DHT22;36730;49.036;9.094;2023-09-30T03:00:02;25.20;70.00
47174;DHT22;36730;49.036;9.094;2023-09-30T03:02:37;25.20;70.10
47174;DHT22;36730;49.036;9.094;2023-09-30T03:05:02;25.10;69.90
47174;DHT22;36730;49.036;9.094;2023-09-30T03:07:29;25.20;70.00
47174;DHT22;36730;49.036;9.094;2023-09-30T03:09:55;25.10;69.60
47174;DHT22;36730;49.036;9.094;2023-09-30T03:12:20;25.20;69.80
47174;DHT22;36730;49.036;9.094;2023-09-30T03:14:46;25.10;70.10
47174;DHT22;36730;49.036;9.094;2023-09-30T03:17:12;25.10;69.80
47174;DHT22;36730;49.036;9.094;2023-09-30T03:19:37;25.10;70.00
47174;DHT22;36730;49.036;9.094;2023-09-30T03:22:04;25.10;70.20
47174;DHT22;36730;49.036;9.094;2023-09-30T03:24:30;25.10;69.80
47174;DHT22;36730;49.036;9.094;2023-09-30T03:26:55;25.10;70.00
47174;DHT22;36730;49.036;9.094;2023-09-30T03:29:20;25.10;70.10
47174;DHT22;36730;49.036;9.094;2023-09-30T03:31:46;25.10;69.70
47174;DHT22;36730;49.036;9.094;2023-09-30T03:34:11;25.10;69.70
47174;DHT22;36730;49.036;9.094;2023-09-30T03:36:39;25.10;69.70
47174;DHT22;36730;49.036;9.094;2023-09-30T03:39:06;25.10;69.30
47174;DHT22;36730;49.036;9.094;2023-09-30T03:41:33;25.10;69.70
47174;DHT22;36730;49.036;9.094;2023-09-30T03:44:02;25.00;69.30
47174;DHT22;36730;49.036;9.094;2023-09-30T03:46:27;25.00;69.00
47174;DHT22;36730;49.036;9.094;2023-09-30T03:48:53;25.00;69.20
47174;DHT22;36730;49.036;9.094;2023-09-30T03:51:18;25.00;69.10
47174;DHT22;36730;49.036;9.094;2023-09-30T03:53:44;25.00;69.20
47174;DHT22;36730;49.036;9.094;2023-09-30T03:56:10;25.00;69.10
47174;DHT22;36730;49.036;9.094;2023-09-30T03:58:39;25.00;69.20
47174;DHT22;36730;49.036;9.094;2023-09-30T04:01:05;25.00;69.10
47174;DHT22;36730;49.036;9.094;2023-09-30T04:03:31;25.00;69.20
47174;DHT22;36730;49.036;9.094;2023-09-30T04:05:58;24.90;69.50
47174;DHT22;36730;49.036;9.094;2023-09-30T04:08:24;25.00;69.50
47174;DHT22;36730;49.036;9.094;2023-09-30T04:10:49;25.00;69.60
47174;DHT22;36730;49.036;9.094;2023-09-30T04:13:15;25.00;69.70
47174;DHT22;36730;49.036;9.094;2023-09-30T04:15:40;24.90;69.70
47174;DHT22;36730;49.036;9.094;2023-09-30T04:18:06;24.90;69.70
47174;DHT22;36730;49.036;9.094;2023-09-30T04:20:31;24.90;69.70
47174;DHT22;36730;49.036;9.094;2023-09-30T04:22:57;24.90;69.80
47174;DHT22;36730;49.036;9.094;2023-09-30T04:25:23;24.90;69.80
47174;DHT22;36730;49.036;9.094;2023-09-30T04:27:50;24.90;69.90
47174;DHT22;36730;49.036;9.094;2023-09-30T04:30:16;24.90;69.90
47174;DHT22;36730;49.036;9.094;2023-09-30T04:32:42;24.90;70.00
47174;DHT22;36730;49.036;9.094;2023-09-30T04:35:08;24.90;70.10
47174;DHT22;36730;49.036;9.094;2023-09-30T04:37:34;24.90;70.10
47174;DHT22;36730;49.036;9.094;2023-09-30T04:39:59;24.80;70.10
47174;DHT22;36730;49.036;9.094;2023-09-30T04:42:24;24.80;70.20
47174;DHT22;36730;49.036;9.094;2023-09-30T04:44:54;24.80;70.50
47174;DHT22;36730;49.036;9.094;2023-09-30T04:47:22;24.80;70.30
47174;DHT22;36730;49.036;9.094;2023-09-30T04:49:49;24.80;70.50
47174;DHT22;36730;49.036;9.094;2023-09-30T04:52:16;24.80;70.30
47174;DHT22;36730;49.036;9.094;2023-09-30T04:54:41;24.80;70.30
47174;DHT22;36730;49.036;9.094;2023-09-30T04:57:07;24.80;70.40
47174;DHT22;36730;49.036;9.094;2023-09-30T04:59:33;24.80;70.50
47174;DHT22;36730;49.036;9.094;2023-09-30T05:01:59;24.80;70.40
47174;DHT22;36730;49.036;9.094;2023-09-30T05:04:25;24.80;70.50
47174;DHT22;36730;49.036;9.094;2023-09-30T05:06:51;24.80;70.70
47174;DHT22;36730;49.036;9.094;2023-09-30T05:09:16;24.80;70.60
47174;DHT22;36730;49.036;9.094;2023-09-30T05:11:42;24.80;71.20
47174;DHT22;36730;49.036;9.094;2023-09-30T05:14:07;24.80;70.70
47174;DHT22;36730;49.036;9.094;2023-09-30T05:16:32;24.80;70.70
47174;DHT22;36730;49.036;9.094;2023-09-30T05:18:58;24.80;71.40
47174;DHT22;36730;49.036;9.094;2023-09-30T05:21:24;24.80;70.90
47174;DHT22;36730;49.036;9.094;2023-09-30T05:23:50;24.70;71.00
47174;DHT22;36730;49.036;9.094;2023-09-30T05:26:15;24.70;71.20
47174;DHT22;36730;49.036;9.094;2023-09-30T05:28:42;24.70;71.50
47174;DHT22;36730;49.036;9.094;2023-09-30T05:31:08;24.70;71.40
47174;DHT22;36730;49.036;9.094;2023-09-30T05:33:33;24.70;71.30
47174;DHT22;36730;49.036;9.094;2023-09-30T05:35:59;24.70;71.30
47174;DHT22;36730;49.036;9.094;2023-09-30T05:38:28;24.70;71.20
47174;DHT22;36730;49.036;9.094;2023-09-30T05:40:53;24.70;71.20
47174;DHT22;36730;49.036;9.094;2023-09-30T05:43:20;24.60;71.50
47174;DHT22;36730;49.036;9.094;2023-09-30T05:45:47;24.60;71.40
47174;DHT22;36730;49.036;9.094;2023-09-30T05:48:20;24.60;71.50
47174;DHT22;36730;49.036;9.094;2023-09-30T05:50:45;24.60;71.60
47174;DHT22;36730;49.036;9.094;2023-09-30T05:53:11;24.60;71.50
47174;DHT22;36730;49.036;9.094;2023-09-30T05:55:37;24.60;71.40
47174;DHT22;36730;49.036;9.094;2023-09-30T05:58:02;24.60;71.50
47174;DHT22;36730;49.036;9.094;2023-09-30T06:00:28;24.60;71.40
47174;DHT22;36730;49.036;9.094;2023-09-30T06:02:56;24.60;71.50
47174;DHT22;36730;49.036;9.094;2023-09-30T06:05:21;24.60;71.60
47174;DHT22;36730;49.036;9.094;2023-09-30T06:07:55;24.50;71.50
47174;DHT22;36730;49.036;9.094;2023-09-30T06:10:21;24.50;71.70
47174;DHT22;36730;49.036;9.094;2023-09-30T06:12:55;24.50;71.60
47174;DHT22;36730;49.036;9.094;2023-09-30T06:15:22;24.50;71.50
47174;DHT22;36730;49.036;9.094;2023-09-30T06:17:54;24.50;71.80
47174;DHT22;36730;49.036;9.094;2023-09-30T06:20:20;24.50;71.50
47174;DHT22;36730;49.036;9.094;2023-09-30T06:22:47;24.60;71.50
47174;DHT22;36730;49.036;9.094;2023-09-30T06:25:15;24.50;71.60
47174;DHT22;36730;49.036;9.094;2023-09-30T06:27:44;24.50;71.60
47174;DHT22;36730;49.036;9.094;2023-09-30T06:30:10;24.50;71.70
47174;DHT22;36730;49.036;9.094;2023-09-30T06:32:35;24.50;71.60
47174;DHT22;36730;49.036;9.094;2023-09-30T06:35:04;24.50;71.60
47174;DHT22;36730;49.036;9.094;2023-09-30T06:37:32;24.50;71.60
47174;DHT22;36730;49.036;9.094;2023-09-30T06:39:57;24.50;71.60
47174;DHT22;36730;49.036;9.094;2023-09-30T06:42:23;24.50;71.70
47174;DHT22;36730;49.036;9.094;2023-09-30T06:44:49;24.50;71.70
47174;DHT22;36730;49.036;9.094;2023-09-30T06:47:15;24.50;71.80
47174;DHT22;36730;49.036;9.094;2023-09-30T06:49:40;24.60;71.80
47174;DHT22;36730;49.036;9.094;2023-09-30T06:52:05;24.60;71.70
47174;DHT22;36730;49.036;9.094;2023-09-30T06:54:32;24.60;72.10
47174;DHT22;36730;49.036;9.094;2023-09-30T06:56:57;24.60;72.00
47174;DHT22;36730;49.036;9.094;2023-09-30T06:59:23;24.60;72.00
47174;DHT22;36730;49.036;9.094;2023-09-30T07:01:50;24.60;72.00
47174;DHT22;36730;49.036;9.094;2023-09-30T07:04:16;24.60;72.10
47174;DHT22;36730;49.036;9.094;2023-09-30T07:06:41;24.60;72.30
47174;DHT22;36730;49.036;9.094;2023-09-30T07:09:06;24.60;72.30
47174;DHT22;36730;49.036;9.094;2023-09-30T07:11:32;24.60;72.20
47174;DHT22;36730;49.036;9.094;2023-09-30T07:13:58;24.60;72.20
47174;DHT22;36730;49.036;9.094;2023-09-30T07:16:24;24.60;72.30
47174;DHT22;36730;49.036;9.094;2023-09-30T07:18:49;24.60;72.20
47174;DHT22;36730;49.036;9.094;2023-09-30T07:21:16;24.60;72.30
47174;DHT22;36730;49.036;9.094;2023-09-30T07:23:41;24.60;72.40
47174;DHT22;36730;49.036;9.094;2023-09-30T07:26:07;24.60;72.90
47174;DHT22;36730;49.036;9.094;2023-09-30T07:28:33;24.60;73.00
47174;DHT22;36730;49.036;9.094;2023-09-30T07:30:58;24.60;72.80
47174;DHT22;36730;49.036;9.094;2023-09-30T07:33:24;24.60;73.20
47174;DHT22;36730;49.036;9.094;2023-09-30T07:35:49;24.60;73.10
47174;DHT22;36730;49.036;9.094;2023-09-30T07:38:15;24.70;73.00
47174;DHT22;36730;49.036;9.094;2023-09-30T07:40:40;24.60;73.50
47174;DHT22;36730;49.036;9.094;2023-09-30T07:43:06;24.70;73.60
47174;DHT22;36730;49.036;9.094;2023-09-30T07:45:32;24.70;73.70
47174;DHT22;36730;49.036;9.094;2023-09-30T07:47:57;24.70;73.80
47174;DHT22;36730;49.036;9.094;2023-09-30T07:50:29;24.70;73.50
47174;DHT22;36730;49.036;9.094;2023-09-30T07:52:55;24.80;73.80
47174;DHT22;36730;49.036;9.094;2023-09-30T07:55:20;24.80;73.60
47174;DHT22;36730;49.036;9.094;2023-09-30T07:57:45;24.80;73.60
47174;DHT22;36730;49.036;9.094;2023-09-30T08:00:11;24.80;73.20
47174;DHT22;36730;49.036;9.094;2023-09-30T08:02:40;24.80;73.30
47174;DHT22;36730;49.036;9.094;2023-09-30T08:05:06;24.80;73.30
47174;DHT22;36730;49.036;9.094;2023-09-30T08:07:32;24.80;73.60
47174;DHT22;36730;49.036;9.094;2023-09-30T08:09:58;24.80;73.30
47174;DHT22;36730;49.036;9.094;2023-09-30T08:12:23;24.80;73.40
47174;DHT22;36730;49.036;9.094;2023-09-30T08:14:49;24.90;73.40
47174;DHT22;36730;49.036;9.094;2023-09-30T08:17:17;24.90;73.50
47174;DHT22;36730;49.036;9.094;2023-09-30T08:19:43;24.90;73.60
47174;DHT22;36730;49.036;9.094;2023-09-30T08:22:09;24.90;73.50
47174;DHT22;36730;49.036;9.094;2023-09-30T08:24:34;25.00;73.40
47174;DHT22;36730;49.036;9.094;2023-09-30T08:27:01;24.90;73.20
47174;DHT22;36730;49.036;9.094;2023-09-30T08:29:26;25.00;73.70
47174;DHT22;36730;49.036;9.094;2023-09-30T08:31:52;25.00;73.10
47174;DHT22;36730;49.036;9.094;2023-09-30T08:34:17;25.00;73.10
47174;DHT22;36730;49.036;9.094;2023-09-30T08:36:45;25.00;73.00
47174;DHT22;36730;49.036;9.094;2023-09-30T08:39:10;25.00;72.80
47174;DHT22;36730;49.036;9.094;2023-09-30T08:41:36;25.10;72.90
47174;DHT22;36730;49.036;9.094;2023-09-30T08:44:02;25.10;72.70
47174;DHT22;36730;49.036;9.094;2023-09-30T08:46:32;25.10;72.70
47174;DHT22;36730;49.036;9.094;2023-09-30T08:49:02;25.10;72.60
47174;DHT22;36730;49.036;9.094;2023-09-30T08:51:28;25.10;72.50
47174;DHT22;36730;49.036;9.094;2023-09-30T08:53:54;25.10;72.70
47174;DHT22;36730;49.036;9.094;2023-09-30T08:56:25;25.20;72.70
47174;DHT22;36730;49.036;9.094;2023-09-30T08:58:52;25.20;72.70
47174;DHT22;36730;49.036;9.094;2023-09-30T09:01:18;25.20;72.50
47174;DHT22;36730;49.036;9.094;2023-09-30T09:03:43;25.20;72.30
47174;DHT22;36730;49.036;9.094;2023-09-30T09:06:09;25.20;72.30
47174;DHT22;36730;49.036;9.094;2023-09-30T09:08:34;25.20;72.50
47174;DHT22;36730;49.036;9.094;2023-09-30T09:11:00;25.20;72.20
47174;DHT22;36730;49.036;9.094;2023-09-30T09:13:26;25.20;71.90
47174;DHT22;36730;49.036;9.094;2023-09-30T09:16:05;25.30;71.90
47174;DHT22;36730;49.036;9.094;2023-09-30T09:18:31;25.30;71.70
47174;DHT22;36730;49.036;9.094;2023-09-30T09:21:10;25.30;71.60
47174;DHT22;36730;49.036;9.094;2023-09-30T09:23:40;25.40;71.50
47174;DHT22;36730;49.036;9.094;2023-09-30T09:26:05;25.40;71.40
47174;DHT22;36730;49.036;9.094;2023-09-30T09:28:36;25.40;71.10
47174;DHT22;36730;49.036;9.094;2023-09-30T09:31:18;25.40;70.80
47174;DHT22;36730;49.036;9.094;2023-09-30T09:33:44;25.40;70.80
47174;DHT22;36730;49.036;9.094;2023-09-30T09:36:09;25.40;70.70
47174;DHT22;36730;49.036;9.094;2023-09-30T09:38:45;25.40;70.60
47174;DHT22;36730;49.036;9.094;2023-09-30T09:41:10;25.50;70.60
47174;DHT22;36730;49.036;9.094;2023-09-30T09:43:36;25.50;70.40
47174;DHT22;36730;49.036;9.094;2023-09-30T09:46:03;25.50;70.30
47174;DHT22;36730;49.036;9.094;2023-09-30T09:48:32;25.50;70.30
47174;DHT22;36730;49.036;9.094;2023-09-30T09:50:58;25.60;70.30
47174;DHT22;36730;49.036;9.094;2023-09-30T09:53:24;25.60;69.90
47174;DHT22;36730;49.036;9.094;2023-09-30T09:55:50;25.60;70.30
47174;DHT22;36730;49.036;9.094;2023-09-30T09:58:17;25.60;70.00
47174;DHT22;36730;49.036;9.094;2023-09-30T10:00:43;25.60;69.80
47174;DHT22;36730;49.036;9.094;2023-09-30T10:03:10;25.60;69.10
47174;DHT22;36730;49.036;9.094;2023-09-30T10:05:36;25.60;69.40
47174;DHT22;36730;49.036;9.094;2023-09-30T10:08:08;25.50;69.70
47174;DHT22;36730;49.036;9.094;2023-09-30T10:10:36;25.50;70.00
47174;DHT22;36730;49.036;9.094;2023-09-30T10:13:02;25.50;69.50
47174;DHT22;36730;49.036;9.094;2023-09-30T10:20:29;25.50;69.80
47174;DHT22;36730;49.036;9.094;2023-09-30T10:25:38;25.60;69.60
47174;DHT22;36730;49.036;9.094;2023-09-30T10:31:15;25.60;69.30
47174;DHT22;36730;49.036;9.094;2023-09-30T10:36:40;25.70;69.10
47174;DHT22;36730;49.036;9.094;2023-09-30T10:39:10;25.70;69.00
47174;DHT22;36730;49.036;9.094;2023-09-30T10:46:51;25.80;68.70
47174;DHT22;36730;49.036;9.094;2023-09-30T10:51:49;25.80;68.60
47174;DHT22;36730;49.036;9.094;2023-09-30T10:54:16;25.80;68.10
47174;DHT22;36730;49.036;9.094;2023-09-30T10:56:47;25.80;68.20
47174;DHT22;36730;49.036;9.094;2023-09-30T10:59:18;25.90;68.60
47174;DHT22;36730;49.036;9.094;2023-09-30T11:01:43;25.90;68.40
47174;DHT22;36730;49.036;9.094;2023-09-30T11:04:09;25.90;67.40
47174;DHT22;36730;49.036;9.094;2023-09-30T11:06:34;25.90;67.80
47174;DHT22;36730;49.036;9.094;2023-09-30T11:09:00;25.90;67.60
47174;DHT22;36730;49.036;9.094;2023-09-30T11:11:42;25.90;67.50
47174;DHT22;36730;49.036;9.094;2023-09-30T11:14:19;26.00;67.50
47174;DHT22;36730;49.036;9.094;2023-09-30T11:16:45;26.00;67.60
47174;DHT22;36730;49.036;9.094;2023-09-30T11:19:11;26.00;67.00
47174;DHT22;36730;49.036;9.094;2023-09-30T11:21:37;26.00;67.10
47174;DHT22;36730;49.036;9.094;2023-09-30T11:24:03;26.00;67.00
47174;DHT22;36730;49.036;9.094;2023-09-30T11:26:29;26.00;66.80
47174;DHT22;36730;49.036;9.094;2023-09-30T11:29:04;26.00;66.50
47174;DHT22;36730;49.036;9.094;2023-09-30T11:31:29;26.10;66.80
47174;DHT22;36730;49.036;9.094;2023-09-30T11:33:59;26.10;66.70
47174;DHT22;36730;49.036;9.094;2023-09-30T11:36:28;26.20;66.80
47174;DHT22;36730;49.036;9.094;2023-09-30T11:38:54;26.20;66.20
47174;DHT22;36730;49.036;9.094;2023-09-30T11:41:19;26.20;66.50
47174;DHT22;36730;49.036;9.094;2023-09-30T11:43:58;26.20;66.50
47174;DHT22;36730;49.036;9.094;2023-09-30T11:46:25;26.20;66.50
47174;DHT22;36730;49.036;9.094;2023-09-30T11:48:56;26.30;66.50
47174;DHT22;36730;49.036;9.094;2023-09-30T11:51:22;26.30;66.30
47174;DHT22;36730;49.036;9.094;2023-09-30T11:53:52;26.30;66.40
47174;DHT22;36730;49.036;9.094;2023-09-30T11:56:19;26.30;66.40
47174;DHT22;36730;49.036;9.094;2023-09-30T11:58:44;26.30;66.40
47174;DHT22;36730;49.036;9.094;2023-09-30T12:01:11;26.40;66.10
47174;DHT22;36730;49.036;9.094;2023-09-30T12:03:39;26.40;65.90
47174;DHT22;36730;49.036;9.094;2023-09-30T12:06:08;26.40;65.80
47174;DHT22;36730;49.036;9.094;2023-09-30T12:08:41;26.50;65.70
47174;DHT22;36730;49.036;9.094;2023-09-30T12:11:07;26.50;65.70
47174;DHT22;36730;49.036;9.094;2023-09-30T12:13:32;26.50;65.40
47174;DHT22;36730;49.036;9.094;2023-09-30T12:15:58;26.40;65.40
47174;DHT22;36730;49.036;9.094;2023-09-30T12:18:23;26.50;65.40
47174;DHT22;36730;49.036;9.094;2023-09-30T12:20:50;26.50;65.30
47174;DHT22;36730;49.036;9.094;2023-09-30T12:23:17;26.50;65.10
47174;DHT22;36730;49.036;9.094;2023-09-30T12:25:43;26.50;65.00
47174;DHT22;36730;49.036;9.094;2023-09-30T12:28:09;26.50;64.90
47174;DHT22;36730;49.036;9.094;2023-09-30T12:30:34;26.50;64.90
47174;DHT22;36730;49.036;9.094;2023-09-30T12:33:00;26.60;64.80
47174;DHT22;36730;49.036;9.094;2023-09-30T12:35:26;26.60;64.80
47174;DHT22;36730;49.036;9.094;2023-09-30T12:37:51;26.50;64.60
47174;DHT22;36730;49.036;9.094;2023-09-30T12:40:17;26.60;64.50
47174;DHT22;36730;49.036;9.094;2023-09-30T12:42:43;26.60;64.20
47174;DHT22;36730;49.036;9.094;2023-09-30T12:45:10;26.60;64.20
47174;DHT22;36730;49.036;9.094;2023-09-30T12:47:35;26.60;64.30
47174;DHT22;36730;49.036;9.094;2023-09-30T12:50:01;26.60;64.20
47174;DHT22;36730;49.036;9.094;2023-09-30T12:52:26;26.60;64.20
47174;DHT22;36730;49.036;9.094;2023-09-30T12:54:52;26.60;63.90
47174;DHT22;36730;49.036;9.094;2023-09-30T12:57:18;26.60;64.00
47174;DHT22;36730;49.036;9.094;2023-09-30T12:59:44;26.60;63.90
47174;DHT22;36730;49.036;9.094;2023-09-30T13:02:12;26.60;63.80
47174;DHT22;36730;49.036;9.094;2023-09-30T13:04:38;26.60;63.70
47174;DHT22;36730;49.036;9.094;2023-09-30T13:07:11;26.60;63.30
47174;DHT22;36730;49.036;9.094;2023-09-30T13:09:40;26.60;63.40
47174;DHT22;36730;49.036;9.094;2023-09-30T13:12:06;26.60;63.30
47174;DHT22;36730;49.036;9.094;2023-09-30T13:14:31;26.70;62.90
47174;DHT22;36730;49.036;9.094;2023-09-30T13:16:57;26.70;62.70
47174;DHT22;36730;49.036;9.094;2023-09-30T13:19:22;26.70;62.70
47174;DHT22;36730;49.036;9.094;2023-09-30T13:21:51;26.70;62.70
47174;DHT22;36730;49.036;9.094;2023-09-30T13:24:20;26.70;62.60
47174;DHT22;36730;49.036;9.094;2023-09-30T13:26:46;26.70;62.50
47174;DHT22;36730;49.036;9.094;2023-09-30T13:29:11;26.70;62.50
47174;DHT22;36730;49.036;9.094;2023-09-30T13:31:38;26.70;62.50
47174;DHT22;36730;49.036;9.094;2023-09-30T13:34:04;26.70;62.30
47174;DHT22;36730;49.036;9.094;2023-09-30T13:36:30;26.70;62.20
47174;DHT22;36730;49.036;9.094;2023-09-30T13:38:55;26.70;62.00
47174;DHT22;36730;49.036;9.094;2023-09-30T13:41:21;26.70;61.80
47174;DHT22;36730;49.036;9.094;2023-09-30T13:43:46;26.80;61.70
47174;DHT22;36730;49.036;9.094;2023-09-30T13:46:12;26.80;61.90
47174;DHT22;36730;49.036;9.094;2023-09-30T13:48:38;26.80;61.60
47174;DHT22;36730;49.036;9.094;2023-09-30T13:51:04;26.80;61.50
47174;DHT22;36730;49.036;9.094;2023-09-30T13:53:30;26.80;61.70
47174;DHT22;36730;49.036;9.094;2023-09-30T13:55:55;26.80;61.30
47174;DHT22;36730;49.036;9.094;2023-09-30T13:58:21;26.80;61.40
47174;DHT22;36730;49.036;9.094;2023-09-30T14:00:47;26.80;61.20
47174;DHT22;36730;49.036;9.094;2023-09-30T14:03:13;26.80;61.50
47174;DHT22;36730;49.036;9.094;2023-09-30T14:05:39;26.80;61.40
47174;DHT22;36730;49.036;9.094;2023-09-30T14:08:04;26.80;61.40
47174;DHT22;36730;49.036;9.094;2023-09-30T14:10:33;26.80;61.10
47174;DHT22;36730;49.036;9.094;2023-09-30T14:12:58;26.80;61.10
47174;DHT22;36730;49.036;9.094;2023-09-30T14:15:24;26.80;61.00
47174;DHT22;36730;49.036;9.094;2023-09-30T14:17:53;26.80;61.00
47174;DHT22;36730;49.036;9.094;2023-09-30T14:20:20;26.80;60.90
47174;DHT22;36730;49.036;9.094;2023-09-30T14:22:46;26.80;60.90
47174;DHT22;36730;49.036;9.094;2023-09-30T14:25:12;26.80;60.90
47174;DHT22;36730;49.036;9.094;2023-09-30T14:27:38;26.80;60.80
47174;DHT22;36730;49.036;9.094;2023-09-30T14:30:05;26.70;60.80
47174;DHT22;36730;49.036;9.094;2023-09-30T14:32:31;26.80;60.70
47174;DHT22;36730;49.036;9.094;2023-09-30T14:34:56;26.80;60.70
47174;DHT22;36730;49.036;9.094;2023-09-30T14:37:23;26.80;60.70
47174;DHT22;36730;49.036;9.094;2023-09-30T14:39:48;26.80;60.60
47174;DHT22;36730;49.036;9.094;2023-09-30T14:42:14;26.80;60.60
47174;DHT22;36730;49.036;9.094;2023-09-30T14:44:39;26.70;60.50
47174;DHT22;36730;49.036;9.094;2023-09-30T14:47:05;26.80;60.40
47174;DHT22;36730;49.036;9.094;2023-09-30T14:49:31;26.80;60.40
47174;DHT22;36730;49.036;9.094;2023-09-30T14:51:56;26.80;60.40
47174;DHT22;36730;49.036;9.094;2023-09-30T14:54:22;26.80;60.40
47174;DHT22;36730;49.036;9.094;2023-09-30T14:56:47;26.80;60.40
47174;DHT22;36730;49.036;9.094;2023-09-30T14:59:13;26.80;60.40
47174;DHT22;36730;49.036;9.094;2023-09-30T15:01:38;26.80;60.30
47174;DHT22;36730;49.036;9.094;2023-09-30T15:04:04;26.80;60.20
47174;DHT22;36730;49.036;9.094;2023-09-30T15:06:29;26.80;60.10
47174;DHT22;36730;49.036;9.094;2023-09-30T15:08:55;26.80;60.30
47174;DHT22;36730;49.036;9.094;2023-09-30T15:11:20;26.80;60.30
47174;DHT22;36730;49.036;9.094;2023-09-30T15:13:46;26.80;60.40
47174;DHT22;36730;49.036;9.094;2023-09-30T15:16:15;26.80;60.20
47174;DHT22;36730;49.036;9.094;2023-09-30T15:18:40;26.80;60.20
47174;DHT22;36730;49.036;9.094;2023-09-30T15:21:06;26.80;60.30
47174;DHT22;36730;49.036;9.094;2023-09-30T15:23:31;26.80;60.10
47174;DHT22;36730;49.036;9.094;2023-09-30T15:25:57;26.80;60.20
47174;DHT22;36730;49.036;9.094;2023-09-30T15:28:23;26.80;60.10
47174;DHT22;36730;49.036;9.094;2023-09-30T15:30:51;26.80;60.10
47174;DHT22;36730;49.036;9.094;2023-09-30T15:33:17;26.80;60.00
47174;DHT22;36730;49.036;9.094;2023-09-30T15:35:43;26.80;60.30
47174;DHT22;36730;49.036;9.094;2023-09-30T15:38:08;26.80;60.10
47174;DHT22;36730;49.036;9.094;2023-09-30T15:40:53;26.80;60.00
47174;DHT22;36730;49.036;9.094;2023-09-30T15:43:23;26.80;60.00
47174;DHT22;36730;49.036;9.094;2023-09-30T15:45:48;26.80;60.20
47174;DHT22;36730;49.036;9.094;2023-09-30T15:48:14;26.70;60.00